Time;durP1;ratioP1;P1;durP2;ratioP2;P2;SDS_P1;SDS_P2;PMS_P1;PMS_P2;Temp;Humidity;BMP_temperature;BMP_pressure;BME280_temperature;BME280_humidity;BME280_pressure;Samples;Min_cycle;Max_cycle;Signal;HPM_P1;HPM_P2
2022/03/20 00:00:31;;;;;;;;;;;;;;;-1.48;63.52;103258.33;1794232;78;20222;-61
2022/03/20 00:03:38;;;;;;;;;;;;;;;-1.48;63.58;103256.99;1794436;80;20245;-61
2022/03/20 00:06:42;;;;;;;;;;;;;;;-1.47;63.52;103256.95;1794069;80;20182;-61
2022/03/20 00:09:46;;;;;;;;;;;;;;;-1.45;63.58;103247.08;1794483;80;20214;-60
2022/03/20 00:12:51;;;;;;;;;;;;;;;-1.48;63.30;103256.99;1794437;80;20209;-60
2022/03/20 00:15:57;;;;;;;;;;;;;;;-1.59;63.26;103259.41;1794462;80;20194;-60
2022/03/20 00:19:05;;;;;;;;;;;;;;;-1.67;63.50;103257.36;1792646;80;20186;-61
2022/03/20 00:22:12;;;;;;;;;;;;;;;-1.73;63.81;103253.41;1794403;80;20218;-60
2022/03/20 00:25:18;;;;;;;;;;;;;;;-1.79;64.10;103250.84;1793906;80;20210;-61
2022/03/20 00:28:24;;;;;;;;;;;;;;;-1.75;64.59;103251.23;1794100;80;20186;-61
2022/03/20 00:31:32;;;;;;;;;;;;;;;-1.69;64.63;103252.46;1794133;80;20573;-60
2022/03/20 00:34:29;;;;;;;;;;;;;;;-1.65;64.54;103246.10;1794566;80;20237;-62
2022/03/20 00:37:36;;;;;;;;;;;;;;;-1.62;64.60;103250.55;1794372;80;20550;-60
2022/03/20 00:40:43;;;;;;;;;;;;;;;-1.62;64.48;103250.07;1794485;80;20490;-60
2022/03/20 00:43:47;;;;;;;;;;;;;;;-1.64;64.25;103247.00;1794276;80;20281;-60
2022/03/20 00:46:52;;;;;;;;;;;;;;;-1.73;64.05;103256.58;1794156;80;20190;-60
2022/03/20 00:49:57;;;;;;;;;;;;;;;-1.82;64.30;103250.91;1794657;80;20292;-60
2022/03/20 00:53:03;;;;;;;;;;;;;;;-1.87;64.54;103250.09;1794591;80;20186;-60
2022/03/20 00:56:07;;;;;;;;;;;;;;;-1.92;64.74;103261.84;1794481;80;20237;-62
2022/03/20 00:59:12;;;;;;;;;;;;;;;-1.97;64.93;103251.20;1794500;80;20241;-60
2022/03/20 01:02:18;;;;;;;;;;;;;;;-1.97;65.27;103247.17;1806507;79;20229;-60
2022/03/20 01:05:23;;;;;;;;;;;;;;;-1.93;65.67;103251.55;1807507;79;20197;-61
2022/03/20 01:08:28;;;;;;;;;;;;;;;-1.86;65.80;103246.52;1807462;79;20201;-61
2022/03/20 01:11:33;;;;;;;;;;;;;;;-1.81;65.82;103243.75;1807537;79;20197;-60
2022/03/20 01:14:39;;;;;;;;;;;;;;;-1.81;65.56;103249.98;1807506;79;20256;-60
2022/03/20 01:17:44;;;;;;;;;;;;;;;-1.79;65.79;103253.53;1807635;79;20268;-60
2022/03/20 01:20:50;;;;;;;;;;;;;;;-1.80;65.49;103250.88;1807115;79;20193;-60
2022/03/20 01:23:55;;;;;;;;;;;;;;;-1.85;65.50;103250.97;1807429;79;20191;-60
2022/03/20 01:27:01;;;;;;;;;;;;;;;-1.83;65.62;103249.14;1807561;79;20245;-61
2022/03/20 01:30:06;;;;;;;;;;;;;;;-1.77;65.56;103245.45;1807084;78;20237;-61
2022/03/20 01:33:12;;;;;;;;;;;;;;;-1.76;65.39;103256.64;1806930;79;20193;-61
2022/03/20 01:36:16;;;;;;;;;;;;;;;-1.79;65.36;103244.14;1807126;78;20232;-60
2022/03/20 01:39:20;;;;;;;;;;;;;;;-1.81;65.10;103247.78;1807171;78;20221;-61
2022/03/20 01:42:23;;;;;;;;;;;;;;;-1.82;65.07;103253.59;1807147;79;20209;-61
2022/03/20 01:45:30;;;;;;;;;;;;;;;-1.82;65.00;103252.25;1783526;78;20254;-61
2022/03/20 01:48:34;;;;;;;;;;;;;;;-1.83;65.00;103245.56;1781748;80;20536;-61
2022/03/20 01:55:02;;;;;;;;;;;;;;;-1.85;65.00;103255.44;1781693;79;20195;-60
2022/03/20 01:58:05;;;;;;;;;;;;;;;-1.88;65.17;103248.78;1761515;80;20211;-61
2022/03/20 02:01:12;;;;;;;;;;;;;;;-1.93;65.07;103251.55;1778881;80;20187;-60
2022/03/20 02:04:22;;;;;;;;;;;;;;;-2.01;65.06;103252.14;1764889;81;20204;-60
2022/03/20 02:07:26;;;;;;;;;;;;;;;-2.06;65.32;103245.95;1766205;81;20227;-60
2022/03/20 02:10:35;;;;;;;;;;;;;;;-2.02;65.70;103246.80;1766409;81;20252;-61
2022/03/20 02:13:37;;;;;;;;;;;;;;;-1.99;65.82;103246.74;1766437;81;20215;-60
2022/03/20 02:16:41;;;;;;;;;;;;;;;-1.98;65.72;103246.72;1766424;81;20243;-60
2022/03/20 02:19:47;;;;;;;;;;;;;;;-2.01;65.50;103244.09;1766414;81;20185;-61
2022/03/20 02:22:53;;;;;;;;;;;;;;;-2.04;65.65;103240.56;1766290;81;20200;-61
2022/03/20 02:25:58;;;;;;;;;;;;;;;-2.06;65.84;103240.59;1766244;81;20267;-60
2022/03/20 02:29:04;;;;;;;;;;;;;;;-2.04;65.93;103237.44;1766555;81;20206;-59
2022/03/20 02:32:10;;;;;;;;;;;;;;;-2.03;66.08;103238.33;1766433;81;20211;-59
2022/03/20 02:35:17;;;;;;;;;;;;;;;-2.04;66.01;103238.78;1755320;81;20201;-60
2022/03/20 02:38:23;;;;;;;;;;;;;;;-2.07;65.93;103244.20;1745510;81;20217;-60
2022/03/20 02:41:30;;;;;;;;;;;;;;;-2.07;66.23;103244.20;1770456;81;20218;-58
2022/03/20 02:45:00;;;;;;;;;;;;;;;-2.06;66.26;103244.61;1751263;81;20227;-60
2022/03/20 02:48:08;;;;;;;;;;;;;;;-2.08;66.27;103242.89;1770536;81;20214;-60
2022/03/20 02:51:13;;;;;;;;;;;;;;;-2.09;66.43;103242.44;1756274;81;20202;-60
2022/03/20 02:54:23;;;;;;;;;;;;;;;-2.08;66.56;103238.86;1739597;82;20326;-60
2022/03/20 02:57:26;;;;;;;;;;;;;;;-2.07;66.68;103232.57;1739493;82;20213;-60
2022/03/20 03:00:35;;;;;;;;;;;;;;;-2.07;66.59;103224.52;1740048;82;20217;-60
2022/03/20 03:03:45;;;;;;;;;;;;;;;-2.08;66.57;103234.84;1739259;78;20217;-60
2022/03/20 03:06:49;;;;;;;;;;;;;;;-2.16;66.51;103226.92;1734817;81;20226;-60
2022/03/20 03:13:18;;;;;;;;;;;;;;;-2.35;66.64;103228.58;1734452;81;20217;-60
2022/03/20 03:16:23;;;;;;;;;;;;;;;-2.36;66.87;103220.98;1736786;80;20210;-60
2022/03/20 03:19:27;;;;;;;;;;;;;;;-2.35;66.87;103224.56;1734933;81;20517;-60
2022/03/20 03:22:33;;;;;;;;;;;;;;;-2.36;67.05;103219.64;1734893;82;20197;-61
2022/03/20 03:25:40;;;;;;;;;;;;;;;-2.38;66.96;103217.91;1734166;81;20245;-60
2022/03/20 03:28:44;;;;;;;;;;;;;;;-2.45;66.85;103225.16;1736732;82;20202;-60
2022/03/20 03:31:49;;;;;;;;;;;;;;;-2.51;66.84;103217.22;1737630;81;20202;-62
2022/03/20 03:38:23;;;;;;;;;;;;;;;-2.50;67.53;103216.30;1734227;82;20568;-60
2022/03/20 03:41:27;;;;;;;;;;;;;;;-2.48;67.59;103218.95;1736730;80;20205;-60
2022/03/20 03:44:32;;;;;;;;;;;;;;;-2.47;67.69;103210.88;1734664;81;20542;-60
2022/03/20 03:47:40;;;;;;;;;;;;;;;-2.50;67.47;103209.59;1734444;82;20522;-59
2022/03/20 03:50:48;;;;;;;;;;;;;;;-2.56;67.44;103212.38;1735194;81;20197;-60
2022/03/20 03:53:54;;;;;;;;;;;;;;;-2.57;67.64;103211.06;1734988;82;20197;-60
2022/03/20 03:56:58;;;;;;;;;;;;;;;-2.55;67.78;103215.48;1734954;81;20193;-61
2022/03/20 04:00:03;;;;;;;;;;;;;;;-2.53;68.00;103209.64;1734267;81;20520;-59
2022/03/20 04:03:10;;;;;;;;;;;;;;;-2.47;68.14;103208.20;1736632;79;20194;-60
2022/03/20 04:06:16;;;;;;;;;;;;;;;-2.45;67.85;103204.15;1775495;79;20265;-59
2022/03/20 04:09:19;;;;;;;;;;;;;;;-2.51;67.56;103205.59;1775712;79;20599;-60
2022/03/20 04:12:24;;;;;;;;;;;;;;;-2.56;67.48;103206.12;1775511;81;20224;-59
2022/03/20 04:15:31;;;;;;;;;;;;;;;-2.59;67.68;103209.75;1775729;79;20497;-59
2022/03/20 04:18:38;;;;;;;;;;;;;;;-2.52;68.11;103205.17;1775530;81;20287;-60
2022/03/20 04:21:42;;;;;;;;;;;;;;;-2.47;68.06;103201.94;1781426;79;20229;-60
2022/03/20 04:24:47;;;;;;;;;;;;;;;-2.49;67.93;103207.33;1797142;79;20177;-60
2022/03/20 04:27:56;;;;;;;;;;;;;;;-2.48;67.86;103206.44;1807133;79;20182;-60
2022/03/20 04:30:57;;;;;;;;;;;;;;;-2.44;67.90;103204.60;1806958;79;20197;-59
2022/03/20 04:34:04;;;;;;;;;;;;;;;-2.44;67.87;103204.12;1806899;79;20667;-60
2022/03/20 04:37:11;;;;;;;;;;;;;;;-2.39;67.83;103207.62;1799262;79;20210;-60
2022/03/20 04:40:19;;;;;;;;;;;;;;;-2.34;67.75;103208.44;1804883;78;20209;-60
2022/03/20 04:43:23;;;;;;;;;;;;;;;-2.26;67.77;103207.86;1806275;79;20205;-59
2022/03/20 04:46:28;;;;;;;;;;;;;;;-2.16;67.97;103212.17;1780693;79;20275;-61
2022/03/20 04:59:42;;;;;;;;;;;;;;;-1.59;67.84;103215.58;1758642;81;20272;-61
2022/03/20 05:02:46;;;;;;;;;;;;;;;-1.45;67.71;103213.50;1758255;81;20240;-61
2022/03/20 05:05:51;;;;;;;;;;;;;;;-1.31;67.47;103218.58;1765941;79;20196;-61
2022/03/20 05:13:19;;;;;;;;;;;;;;;-1.22;67.15;103211.70;1767950;80;20256;-61
2022/03/20 05:15:23;;;;;;;;;;;;;;;-1.06;66.62;103217.17;1766577;80;20235;-60
2022/03/20 05:18:28;;;;;;;;;;;;;;;-1.05;65.97;103217.59;1767643;80;20211;-60
2022/03/20 05:21:33;;;;;;;;;;;;;;;-1.03;65.74;103226.03;1767109;80;20215;-59
2022/03/20 05:24:38;;;;;;;;;;;;;;;-1.01;65.45;103217.93;1766986;81;20231;-61
2022/03/20 05:27:44;;;;;;;;;;;;;;;-0.91;65.41;103224.89;1783338;78;20258;-60
2022/03/20 05:30:48;;;;;;;;;;;;;;;-0.76;65.36;103225.91;1793967;80;20222;-61
2022/03/20 05:33:54;;;;;;;;;;;;;;;-0.61;65.14;103227.78;1794502;80;20186;-61
2022/03/20 05:36:59;;;;;;;;;;;;;;;-0.47;64.77;103222.06;1793935;80;20217;-60
2022/03/20 05:40:04;;;;;;;;;;;;;;;-0.38;64.47;103221.86;1793914;80;20209;-61
2022/03/20 05:43:09;;;;;;;;;;;;;;;-0.28;64.28;103215.31;1793967;80;20210;-61
2022/03/20 05:46:15;;;;;;;;;;;;;;;-0.22;63.65;103212.45;1793570;80;20249;-59
2022/03/20 05:49:21;;;;;;;;;;;;;;;-0.16;63.32;103223.10;1793436;79;20210;-61
2022/03/20 05:52:26;;;;;;;;;;;;;;;-0.04;63.23;103222.77;1791027;80;20250;-60
2022/03/20 05:58:51;;;;;;;;;;;;;;;0.21;62.50;103227.08;1794130;80;20537;-61
2022/03/20 06:01:56;;;;;;;;;;;;;;;0.33;62.11;103226.28;1794541;80;20181;-60
2022/03/20 06:05:02;;;;;;;;;;;;;;;0.38;61.48;103219.42;1794702;80;20217;-62
2022/03/20 06:08:07;;;;;;;;;;;;;;;0.43;60.80;103218.34;1773584;80;20245;-61
2022/03/20 06:11:10;;;;;;;;;;;;;;;0.51;60.47;103225.76;1794288;80;20198;-60
2022/03/20 06:14:17;;;;;;;;;;;;;;;0.57;60.21;103227.41;1794231;80;20318;-60
2022/03/20 06:17:21;;;;;;;;;;;;;;;0.70;60.19;103232.89;1793753;80;20253;-58
2022/03/20 06:20:25;;;;;;;;;;;;;;;0.83;60.17;103232.48;1793912;80;20573;-60
2022/03/20 06:23:32;;;;;;;;;;;;;;;0.95;60.19;103233.94;1793730;80;20210;-60
2022/03/20 06:26:35;;;;;;;;;;;;;;;1.01;60.04;103236.00;1770766;80;20197;-60
2022/03/20 06:29:39;;;;;;;;;;;;;;;1.10;59.77;103238.41;1793599;80;20206;-60
2022/03/20 06:32:44;;;;;;;;;;;;;;;1.24;59.36;103240.22;1783747;80;20221;-61
2022/03/20 06:35:51;;;;;;;;;;;;;;;1.34;59.00;103244.41;1762984;81;20247;-61
2022/03/20 06:38:55;;;;;;;;;;;;;;;1.54;58.81;103240.61;1762434;81;20252;-59
2022/03/20 06:42:02;;;;;;;;;;;;;;;1.74;58.31;103240.44;1762578;81;20216;-60
2022/03/20 06:45:11;;;;;;;;;;;;;;;1.86;57.80;103234.16;1743360;81;20208;-59
2022/03/20 06:48:15;;;;;;;;;;;;;;;2.04;57.47;103225.45;1776280;80;20208;-61
2022/03/20 06:51:22;;;;;;;;;;;;;;;2.24;56.32;103228.80;1784263;79;20332;-62
2022/03/20 06:54:26;;;;;;;;;;;;;;;2.44;55.13;103229.00;1795667;80;20281;-61
2022/03/20 06:57:31;;;;;;;;;;;;;;;2.64;54.01;103227.80;1793249;80;20670;-60
2022/03/20 07:00:36;;;;;;;;;;;;;;;2.77;53.29;103231.83;1790215;79;20217;-61
2022/03/20 07:03:43;;;;;;;;;;;;;;;2.87;52.51;103217.03;1795397;80;20304;-62
2022/03/20 07:06:46;;;;;;;;;;;;;;;2.99;51.76;103221.97;1796535;77;20858;-62
2022/03/20 07:09:51;;;;;;;;;;;;;;;3.09;51.04;103212.57;1795539;79;20550;-62
2022/03/20 07:16:02;;;;;;;;;;;;;;;3.25;49.18;103223.67;1746184;79;20243;-60
2022/03/20 07:19:08;;;;;;;;;;;;;;;3.23;47.60;103238.62;1796056;79;20585;-62
2022/03/20 07:22:15;;;;;;;;;;;;;;;3.17;47.31;103225.34;1797330;79;20283;-62
2022/03/20 07:32:11;;;;;;;;;;;;;;;3.45;46.61;103204.34;1791477;79;20213;-62
2022/03/20 07:35:20;;;;;;;;;;;;;;;3.54;45.57;103212.09;1791339;79;20534;-62
2022/03/20 07:38:25;;;;;;;;;;;;;;;3.58;45.26;103212.39;1773506;80;20301;-60
2022/03/20 07:41:30;;;;;;;;;;;;;;;3.71;44.29;103212.77;1791014;80;20214;-61
2022/03/20 07:44:36;;;;;;;;;;;;;;;3.80;43.46;103213.27;1791052;80;20278;-62
2022/03/20 07:47:41;;;;;;;;;;;;;;;3.90;43.13;103211.92;1791180;80;20254;-61
2022/03/20 07:50:46;;;;;;;;;;;;;;;3.99;42.90;103204.78;1792908;79;20202;-61
2022/03/20 07:53:51;;;;;;;;;;;;;;;4.09;42.65;103214.76;1792569;79;20237;-61
2022/03/20 07:57:02;;;;;;;;;;;;;;;4.13;42.58;103204.17;1791653;80;20253;-62
2022/03/20 08:00:07;;;;;;;;;;;;;;;4.16;42.51;103204.05;1791592;80;20554;-62
2022/03/20 08:03:13;;;;;;;;;;;;;;;4.18;42.18;103204.41;1791815;79;20237;-61
2022/03/20 08:06:18;;;;;;;;;;;;;;;4.20;41.87;103198.91;1761117;81;20193;-62
2022/03/20 08:09:27;;;;;;;;;;;;;;;4.25;41.79;103205.02;1770948;81;20243;-61
2022/03/20 08:12:32;;;;;;;;;;;;;;;4.33;41.50;103201.01;1775181;81;20211;-62
2022/03/20 08:15:43;;;;;;;;;;;;;;;4.35;40.88;103192.34;1774397;79;20274;-60
2022/03/20 08:18:47;;;;;;;;;;;;;;;4.37;40.88;103204.02;1771640;79;20209;-61
2022/03/20 08:21:55;;;;;;;;;;;;;;;4.41;40.45;103206.98;1804266;79;20288;-62
2022/03/20 08:24:59;;;;;;;;;;;;;;;4.45;40.61;103198.23;1804184;79;20209;-62
2022/03/20 08:28:07;;;;;;;;;;;;;;;4.54;40.84;103196.00;1804019;79;20625;-60
2022/03/20 08:31:13;;;;;;;;;;;;;;;4.70;40.21;103198.00;1804567;79;20229;-61
2022/03/20 08:34:20;;;;;;;;;;;;;;;4.79;39.74;103195.75;1804627;79;20245;-60
2022/03/20 08:37:25;;;;;;;;;;;;;;;4.80;38.97;103196.64;1804068;79;20209;-62
2022/03/20 08:40:35;;;;;;;;;;;;;;;4.83;38.89;103198.75;1803882;79;20213;-62
2022/03/20 08:43:38;;;;;;;;;;;;;;;4.92;38.96;103191.53;1773515;81;20242;-61
2022/03/20 08:46:45;;;;;;;;;;;;;;;4.98;38.87;103195.80;1773387;81;20506;-61
2022/03/20 08:49:49;;;;;;;;;;;;;;;5.08;38.88;103200.72;1773798;81;20606;-61
2022/03/20 08:52:53;;;;;;;;;;;;;;;5.15;38.72;103195.88;1774705;81;20542;-61
2022/03/20 08:55:58;;;;;;;;;;;;;;;5.16;37.66;103186.77;1774878;81;20281;-61
2022/03/20 08:59:04;;;;;;;;;;;;;;;4.99;37.28;103197.09;1775486;79;20265;-61
2022/03/20 09:02:11;;;;;;;;;;;;;;;4.88;37.45;103191.74;1803256;79;20240;-62
2022/03/20 09:05:18;;;;;;;;;;;;;;;4.90;37.75;103188.49;1807099;79;20248;-61
2022/03/20 09:08:24;;;;;;;;;;;;;;;4.99;37.61;103186.70;1806902;79;20326;-61
2022/03/20 09:11:29;;;;;;;;;;;;;;;5.09;37.36;103184.82;1770488;81;20192;-61
2022/03/20 09:14:34;;;;;;;;;;;;;;;5.15;37.05;103181.84;1769772;81;20191;-61
2022/03/20 09:21:08;;;;;;;;;;;;;;;5.20;36.43;103181.62;1768455;81;20231;-61
2022/03/20 09:24:15;;;;;;;;;;;;;;;5.23;36.46;103186.90;1772439;80;20245;-62
2022/03/20 09:27:22;;;;;;;;;;;;;;;5.25;36.20;103187.72;1772546;80;20201;-61
2022/03/20 09:30:26;;;;;;;;;;;;;;;5.31;36.42;103173.33;1772140;79;20262;-62
2022/03/20 09:33:32;;;;;;;;;;;;;;;5.46;36.45;103175.79;1771242;80;20221;-61
2022/03/20 09:36:36;;;;;;;;;;;;;;;5.63;36.34;103170.39;1767703;81;20216;-61
2022/03/20 09:39:41;;;;;;;;;;;;;;;5.76;36.53;103172.91;1767512;81;20267;-61
2022/03/20 09:42:47;;;;;;;;;;;;;;;5.89;36.63;103180.89;1768284;81;20592;-61
2022/03/20 09:45:53;;;;;;;;;;;;;;;6.04;36.40;103177.41;1768547;81;20208;-61
2022/03/20 09:48:58;;;;;;;;;;;;;;;6.10;36.28;103170.28;1739740;81;20212;-61
2022/03/20 09:52:04;;;;;;;;;;;;;;;6.16;36.28;103167.23;1766255;81;20616;-60
2022/03/20 09:55:10;;;;;;;;;;;;;;;6.23;36.00;103155.09;1768901;79;20202;-61
2022/03/20 09:58:13;;;;;;;;;;;;;;;6.33;36.25;103167.23;1770521;81;20281;-62
2022/03/20 10:01:18;;;;;;;;;;;;;;;6.45;36.05;103163.88;1768400;79;20204;-62
2022/03/20 10:04:23;;;;;;;;;;;;;;;6.56;35.96;103157.38;1768328;80;20294;-62
2022/03/20 10:07:31;;;;;;;;;;;;;;;6.65;35.90;103152.79;1768154;81;20502;-62
2022/03/20 10:10:38;;;;;;;;;;;;;;;6.69;35.85;103150.78;1768847;79;20396;-62
2022/03/20 10:13:42;;;;;;;;;;;;;;;6.80;35.80;103150.57;1774117;79;20247;-62
2022/03/20 10:16:50;;;;;;;;;;;;;;;6.92;35.49;103139.02;1769906;80;20222;-61
2022/03/20 10:19:55;;;;;;;;;;;;;;;7.02;35.22;103142.11;1770146;81;20234;-61
2022/03/20 10:23:00;;;;;;;;;;;;;;;7.18;35.09;103134.84;1770270;81;20241;-60
2022/03/20 10:26:06;;;;;;;;;;;;;;;7.30;34.73;103125.95;1780698;79;20198;-61
2022/03/20 10:29:10;;;;;;;;;;;;;;;7.35;34.26;103123.84;1774405;81;20475;-61
2022/03/20 10:32:16;;;;;;;;;;;;;;;7.46;34.49;103126.36;1759623;80;20212;-62
2022/03/20 10:35:23;;;;;;;;;;;;;;;7.56;34.49;103118.02;1774235;80;20262;-62
2022/03/20 10:38:41;;;;;;;;;;;;;;;7.65;34.48;103115.25;1777642;80;20204;-61
2022/03/20 10:41:45;;;;;;;;;;;;;;;7.76;34.47;103114.59;1774983;81;20226;-62
2022/03/20 10:44:54;;;;;;;;;;;;;;;7.92;34.30;103114.97;1774872;79;20212;-62
2022/03/20 10:48:02;;;;;;;;;;;;;;;8.02;34.00;103113.92;1794749;79;20244;-60
2022/03/20 10:51:08;;;;;;;;;;;;;;;8.07;33.56;103108.56;1795725;80;20509;-61
2022/03/20 10:54:22;;;;;;;;;;;;;;;8.10;33.38;103107.52;1795594;80;20419;-62
2022/03/20 10:57:25;;;;;;;;;;;;;;;8.25;33.22;103095.68;1795564;80;20645;-61
2022/03/20 11:00:30;;;;;;;;;;;;;;;8.27;31.73;103097.36;1796153;80;20542;-60
2022/03/20 11:03:37;;;;;;;;;;;;;;;8.13;31.38;103091.84;1795723;80;20602;-61
2022/03/20 11:06:47;;;;;;;;;;;;;;;8.12;32.07;103094.67;1795940;79;20538;-62
2022/03/20 11:09:54;;;;;;;;;;;;;;;8.22;31.50;103090.38;1795763;79;20202;-61
2022/03/20 11:12:59;;;;;;;;;;;;;;;8.35;31.35;103085.48;1798019;79;20605;-62
2022/03/20 11:16:05;;;;;;;;;;;;;;;8.45;31.08;103091.25;1798544;79;20245;-60
2022/03/20 11:19:12;;;;;;;;;;;;;;;8.55;30.61;103084.21;1798182;79;20549;-60
2022/03/20 11:22:17;;;;;;;;;;;;;;;8.69;30.56;103084.20;1798350;80;20558;-60
2022/03/20 11:25:25;;;;;;;;;;;;;;;8.75;30.40;103073.77;1799030;79;20297;-61
2022/03/20 11:28:30;;;;;;;;;;;;;;;8.92;30.11;103068.12;1798364;79;20554;-62
2022/03/20 11:31:43;;;;;;;;;;;;;;;9.06;30.07;103068.56;1798890;79;20391;-61
2022/03/20 11:34:53;;;;;;;;;;;;;;;9.24;30.65;103069.21;1766676;80;20210;-61
2022/03/20 11:37:59;;;;;;;;;;;;;;;9.46;30.06;103067.69;1764592;79;20207;-61
2022/03/20 11:41:14;;;;;;;;;;;;;;;9.49;30.06;103063.38;1763112;79;20227;-61
2022/03/20 11:44:22;;;;;;;;;;;;;;;9.48;29.85;103067.06;1779090;79;20573;-60
2022/03/20 11:47:29;;;;;;;;;;;;;;;9.44;29.90;103060.06;1732698;82;20280;-61
2022/03/20 11:50:34;;;;;;;;;;;;;;;9.54;29.67;103051.64;1773489;79;20228;-61
2022/03/20 11:53:40;;;;;;;;;;;;;;;9.45;29.56;103057.70;1791012;79;20197;-60
2022/03/20 11:56:48;;;;;;;;;;;;;;;9.59;30.02;103049.47;1769933;80;20613;-58
2022/03/20 11:59:55;;;;;;;;;;;;;;;9.81;29.69;103048.86;1770509;80;20234;-61
2022/03/20 12:03:25;;;;;;;;;;;;;;;9.97;29.98;103039.46;1772541;80;20221;-61
2022/03/20 12:06:34;;;;;;;;;;;;;;;10.12;29.72;103035.70;1772964;80;20254;-60
2022/03/20 12:10:03;;;;;;;;;;;;;;;10.11;29.42;103023.01;1781758;79;20550;-60
2022/03/20 12:13:25;;;;;;;;;;;;;;;9.98;29.31;103030.29;1798583;77;20239;-61
2022/03/20 12:16:51;;;;;;;;;;;;;;;9.72;29.37;103031.20;1795155;80;20206;-61
2022/03/20 12:19:58;;;;;;;;;;;;;;;9.62;29.69;103026.01;1777372;79;20206;-61
2022/03/20 12:23:07;;;;;;;;;;;;;;;9.52;30.21;103023.51;1795196;79;20209;-61
2022/03/20 12:26:34;;;;;;;;;;;;;;;9.66;30.56;103017.96;1795999;78;20246;-62
2022/03/20 12:29:39;;;;;;;;;;;;;;;9.81;30.54;103018.28;1775418;80;20291;-62
2022/03/20 12:33:00;;;;;;;;;;;;;;;9.92;30.61;103018.41;1792904;79;20805;-61
2022/03/20 12:36:05;;;;;;;;;;;;;;;9.85;29.85;103011.59;1799160;79;20248;-61
2022/03/20 12:39:10;;;;;;;;;;;;;;;9.82;29.51;102999.98;1805704;79;20276;-60
2022/03/20 12:42:19;;;;;;;;;;;;;;;9.75;29.22;103009.11;1802376;79;20297;-61
2022/03/20 12:45:24;;;;;;;;;;;;;;;9.64;29.00;103002.14;1802481;78;20209;-64
2022/03/20 12:48:34;;;;;;;;;;;;;;;9.65;29.20;102998.44;1798816;80;20281;-61
2022/03/20 12:51:41;;;;;;;;;;;;;;;9.83;28.68;103008.09;1775216;79;20262;-60
2022/03/20 12:54:47;;;;;;;;;;;;;;;9.80;28.37;103000.61;1791000;79;20296;-58
2022/03/20 12:57:54;;;;;;;;;;;;;;;9.88;28.48;102996.33;1785724;79;20329;-61
2022/03/20 13:01:00;;;;;;;;;;;;;;;10.08;28.32;103001.33;1790767;79;20218;-61
2022/03/20 13:04:05;;;;;;;;;;;;;;;9.89;28.62;102994.00;1799938;79;20593;-62
2022/03/20 13:07:14;;;;;;;;;;;;;;;9.84;29.19;102987.09;1798171;79;20256;-61
2022/03/20 13:10:20;;;;;;;;;;;;;;;9.95;28.97;102983.98;1804776;79;20593;-60
2022/03/20 13:13:26;;;;;;;;;;;;;;;9.86;28.93;102978.28;1801038;79;20213;-60
2022/03/20 13:16:33;;;;;;;;;;;;;;;9.84;29.11;102980.24;1784292;79;20562;-61
2022/03/20 13:19:42;;;;;;;;;;;;;;;9.88;29.55;102966.23;1784702;79;20212;-60
2022/03/20 13:22:47;;;;;;;;;;;;;;;10.03;29.17;102969.27;1782521;79;20210;-62
2022/03/20 13:25:58;;;;;;;;;;;;;;;10.00;28.60;102968.13;1795090;79;20609;-60
2022/03/20 13:29:03;;;;;;;;;;;;;;;9.87;28.81;102963.61;1791248;79;20240;-62
2022/03/20 13:32:18;;;;;;;;;;;;;;;9.86;29.07;102961.87;1795606;79;20199;-62
2022/03/20 13:35:26;;;;;;;;;;;;;;;10.08;29.04;102960.76;1790411;78;20233;-61
2022/03/20 13:38:30;;;;;;;;;;;;;;;10.11;28.32;102964.16;1787226;79;20531;-59
2022/03/20 13:41:35;;;;;;;;;;;;;;;10.04;28.43;102960.54;1791928;79;20215;-61
2022/03/20 13:44:47;;;;;;;;;;;;;;;10.20;28.39;102965.34;1800412;78;20197;-61
2022/03/20 13:47:52;;;;;;;;;;;;;;;10.09;28.14;102959.28;1774301;81;20322;-61
2022/03/20 13:50:59;;;;;;;;;;;;;;;10.05;28.36;102965.91;1774359;81;20567;-60
2022/03/20 13:54:26;;;;;;;;;;;;;;;9.95;28.60;102960.72;1774873;81;20251;-60
2022/03/20 13:57:30;;;;;;;;;;;;;;;9.99;27.74;102949.93;1774792;81;20522;-61
2022/03/20 14:00:49;;;;;;;;;;;;;;;10.02;26.87;102959.28;1781707;79;20266;-61
2022/03/20 14:03:57;;;;;;;;;;;;;;;10.07;27.00;102953.48;1802971;79;20215;-61
2022/03/20 14:07:01;;;;;;;;;;;;;;;10.24;26.99;102945.83;1785649;79;20218;-61
2022/03/20 14:10:05;;;;;;;;;;;;;;;10.09;27.03;102951.06;1768383;80;20831;-62
2022/03/20 14:13:31;;;;;;;;;;;;;;;9.75;26.75;102942.09;1769047;79;20253;-61
2022/03/20 14:16:37;;;;;;;;;;;;;;;9.49;27.20;102940.31;1737307;82;20196;-61
2022/03/20 14:19:54;;;;;;;;;;;;;;;9.61;27.24;102933.98;1736985;82;20204;-61
2022/03/20 14:23:03;;;;;;;;;;;;;;;9.65;27.54;102928.70;1737038;82;20235;-61
2022/03/20 14:26:07;;;;;;;;;;;;;;;9.74;27.91;102926.67;1736992;82;20233;-61
2022/03/20 14:39:26;;;;;;;;;;;;;;;9.75;28.28;102918.84;1737193;82;20576;-61
2022/03/20 14:39:27;;;;;;;;;;;;;;;10.44;28.79;102911.53;1736299;82;20661;-61
2022/03/20 14:42:36;;;;;;;;;;;;;;;10.40;29.16;102904.02;1736983;82;20291;-61
2022/03/20 14:45:40;;;;;;;;;;;;;;;10.34;29.55;102900.86;1736556;82;20257;-61
2022/03/20 14:48:48;;;;;;;;;;;;;;;10.06;29.78;102906.09;1736819;82;20209;-61
2022/03/20 14:51:56;;;;;;;;;;;;;;;9.80;30.33;102905.70;1737172;82;20253;-60
2022/03/20 14:55:03;;;;;;;;;;;;;;;10.08;30.49;102904.16;1737522;81;20226;-61
2022/03/20 14:58:09;;;;;;;;;;;;;;;10.33;30.38;102903.23;1737259;82;20254;-61
2022/03/20 15:01:19;;;;;;;;;;;;;;;10.45;30.17;102896.83;1737550;82;20214;-62
2022/03/20 15:04:26;;;;;;;;;;;;;;;10.75;30.01;102895.05;1744864;81;20210;-62
2022/03/20 15:07:35;;;;;;;;;;;;;;;10.61;29.84;102885.63;1738283;82;20190;-61
2022/03/20 15:14:03;;;;;;;;;;;;;;;9.57;31.10;102893.28;1756744;81;20199;-62
2022/03/20 15:17:08;;;;;;;;;;;;;;;9.41;31.76;102893.49;1792387;80;20570;-61
2022/03/20 15:20:16;;;;;;;;;;;;;;;9.78;31.87;102889.92;1793587;80;20222;-61
2022/03/20 15:23:21;;;;;;;;;;;;;;;9.76;31.39;102886.41;1793298;80;20210;-61
2022/03/20 15:26:26;;;;;;;;;;;;;;;9.55;31.35;102886.56;1766141;80;20247;-61
2022/03/20 15:29:31;;;;;;;;;;;;;;;9.49;30.84;102894.31;1762087;81;20472;-62
2022/03/20 15:32:38;;;;;;;;;;;;;;;9.31;30.70;102890.16;1761880;81;20251;-62
2022/03/20 15:35:46;;;;;;;;;;;;;;;9.21;30.83;102883.56;1789283;80;20237;-62
2022/03/20 15:38:56;;;;;;;;;;;;;;;9.10;30.79;102881.58;1793414;80;20205;-61
2022/03/20 15:41:59;;;;;;;;;;;;;;;8.93;30.44;102884.56;1793773;80;20273;-61
2022/03/20 15:45:06;;;;;;;;;;;;;;;8.64;30.59;102885.16;1793481;80;20580;-61
2022/03/20 15:48:06;;;;;;;;;;;;;;;8.38;30.96;102887.40;1793708;80;20205;-62
2022/03/20 15:50:57;;;;;;;;;;;;;;;8.10;31.21;102881.08;1769050;80;20203;-62
2022/03/20 15:54:02;;;;;;;;;;;;;;;7.78;31.54;102883.13;1800584;79;20227;-62
2022/03/20 15:57:07;;;;;;;;;;;;;;;7.53;31.82;102887.87;1801871;79;20191;-61
2022/03/20 16:00:13;;;;;;;;;;;;;;;7.31;32.14;102888.80;1801775;79;20274;-62
2022/03/20 16:03:20;;;;;;;;;;;;;;;7.11;32.44;102887.78;1760847;80;20207;-62
2022/03/20 16:06:26;;;;;;;;;;;;;;;6.93;32.65;102886.66;1802223;79;20207;-61
2022/03/20 16:09:31;;;;;;;;;;;;;;;6.74;32.81;102881.41;1777702;79;20255;-62
2022/03/20 16:12:38;;;;;;;;;;;;;;;6.59;32.96;102878.72;1761997;81;20241;-62
2022/03/20 16:15:43;;;;;;;;;;;;;;;6.44;33.42;102881.84;1775933;80;20209;-61
2022/03/20 16:18:48;;;;;;;;;;;;;;;6.29;34.05;102882.73;1771127;80;20214;-61
2022/03/20 16:21:56;;;;;;;;;;;;;;;6.16;34.54;102877.59;1787961;79;20271;-60
2022/03/20 16:28:32;;;;;;;;;;;;;;;5.85;35.32;102880.28;1805876;79;20343;-61
2022/03/20 16:31:38;;;;;;;;;;;;;;;5.69;35.36;102886.98;1805564;79;20529;-61
2022/03/20 16:34:48;;;;;;;;;;;;;;;5.54;36.17;102888.30;1806282;79;20605;-61
2022/03/20 16:37:55;;;;;;;;;;;;;;;5.35;36.75;102886.16;1805890;79;20221;-61
2022/03/20 16:41:00;;;;;;;;;;;;;;;5.16;37.27;102893.05;1804016;79;20217;-62
2022/03/20 16:44:03;;;;;;;;;;;;;;;5.00;37.46;102899.34;1805832;79;20217;-61
2022/03/20 16:47:12;;;;;;;;;;;;;;;4.88;37.65;102901.34;1805461;79;20213;-60
2022/03/20 16:50:18;;;;;;;;;;;;;;;4.73;37.90;102902.98;1805842;79;20461;-60
2022/03/20 16:53:24;;;;;;;;;;;;;;;4.60;38.72;102905.44;1751827;81;20744;-62
2022/03/20 16:56:28;;;;;;;;;;;;;;;4.47;39.25;102894.78;1768003;81;20249;-61
2022/03/20 16:59:36;;;;;;;;;;;;;;;4.35;39.59;102904.89;1806641;79;20300;-61